createdAt,value
2019-06-15T00:02:32.791Z,5.27
2019-06-15T00:05:38.056Z,6.87
2019-06-15T00:08:43.333Z,5.57
2019-06-15T00:11:48.523Z,5.53
2019-06-15T00:14:53.653Z,11.47
2019-06-15T00:17:58.818Z,4.63
2019-06-15T00:21:04.013Z,5.43
2019-06-15T00:24:09.252Z,5.57
2019-06-15T00:27:14.473Z,7.33
2019-06-15T00:30:20.723Z,5.03
2019-06-15T00:33:25.889Z,9.37
2019-06-15T00:36:31.043Z,6.80
2019-06-15T00:39:36.383Z,7.43
2019-06-15T00:42:41.551Z,4.57
2019-06-15T00:45:46.741Z,7.10
2019-06-15T00:48:51.885Z,6.57
2019-06-15T00:51:57.066Z,7.20
2019-06-15T00:55:02.326Z,4.70
2019-06-15T00:58:07.623Z,8.27
2019-06-15T01:01:12.870Z,6.03
2019-06-15T01:04:18.401Z,14.43
2019-06-15T01:07:23.596Z,6.50
2019-06-15T01:10:28.737Z,11.90
2019-06-15T01:13:33.922Z,7.63
2019-06-15T01:16:39.105Z,4.30
2019-06-15T01:19:44.339Z,7.83
2019-06-15T01:22:49.638Z,7.50
2019-06-15T01:25:54.811Z,6.40
2019-06-15T01:28:59.995Z,11.43
2019-06-15T01:32:05.212Z,11.40
2019-06-15T01:35:10.568Z,8.13
2019-06-15T01:38:15.828Z,11.77
2019-06-15T01:41:20.994Z,8.40
2019-06-15T01:44:26.215Z,6.37
2019-06-15T01:47:31.376Z,6.60
2019-06-15T01:50:36.593Z,11.07
2019-06-15T01:53:41.760Z,6.33
2019-06-15T01:56:46.958Z,5.83
2019-06-15T01:59:52.207Z,5.27
2019-06-15T02:02:57.406Z,7.93
2019-06-15T02:06:02.943Z,7.60
2019-06-15T02:09:08.642Z,5.83
2019-06-15T02:12:13.915Z,5.77
2019-06-15T02:15:19.283Z,7.27
2019-06-15T02:18:24.546Z,11.93
2019-06-15T02:21:29.665Z,8.50
2019-06-15T02:24:34.875Z,9.03
2019-06-15T02:27:40.380Z,9.67
2019-06-15T02:30:45.577Z,8.77
2019-06-15T02:33:50.709Z,5.77
2019-06-15T02:36:55.890Z,7.40
2019-06-15T02:40:01.072Z,7.37
2019-06-15T02:43:06.308Z,6.33
2019-06-15T02:46:11.484Z,8.23
2019-06-15T02:49:16.655Z,8.00
2019-06-15T02:52:21.832Z,5.13
2019-06-15T02:55:27.227Z,5.83
2019-06-15T02:58:32.424Z,6.00
2019-06-15T03:01:37.668Z,10.03
2019-06-15T03:04:42.796Z,7.97
2019-06-15T03:07:48.013Z,7.90
2019-06-15T03:10:53.178Z,6.67
2019-06-15T03:13:59.138Z,8.30
2019-06-15T03:17:04.339Z,7.57
2019-06-15T03:20:10.291Z,6.33
2019-06-15T03:23:15.425Z,7.43
2019-06-15T03:26:20.601Z,5.93
2019-06-15T03:29:25.739Z,6.97
2019-06-15T03:32:30.953Z,7.70
2019-06-15T03:35:36.094Z,5.80
2019-06-15T03:38:41.333Z,6.13
2019-06-15T03:41:46.555Z,6.63
2019-06-15T03:44:51.746Z,8.00
2019-06-15T03:47:56.910Z,7.13
2019-06-15T03:51:02.105Z,5.73
2019-06-15T03:54:07.254Z,6.37
2019-06-15T03:57:12.443Z,3.90
2019-06-15T04:00:47.223Z,7.80
2019-06-15T04:03:52.420Z,7.67
2019-06-15T04:06:57.588Z,6.80
2019-06-15T04:10:02.772Z,7.90
2019-06-15T04:13:08.023Z,7.70
2019-06-15T04:16:13.179Z,11.17
2019-06-15T04:19:18.374Z,14.90
2019-06-15T04:22:23.580Z,5.40
2019-06-15T04:25:28.736Z,6.10
2019-06-15T04:28:33.941Z,7.20
2019-06-15T04:31:40.059Z,6.07
2019-06-15T04:34:45.458Z,4.53
2019-06-15T04:37:51.705Z,8.50
2019-06-15T04:40:56.872Z,7.27
2019-06-15T04:44:02.031Z,4.77
2019-06-15T04:47:07.401Z,5.17
2019-06-15T04:50:12.615Z,3.57
2019-06-15T04:53:17.812Z,5.83
2019-06-15T04:56:23.016Z,4.20
2019-06-15T04:59:28.273Z,5.97
2019-06-15T05:02:33.441Z,5.97
2019-06-15T05:05:38.670Z,6.10
2019-06-15T05:08:43.798Z,9.20
2019-06-15T05:11:48.981Z,5.10
2019-06-15T05:14:54.115Z,9.23
2019-06-15T05:17:59.301Z,9.07
2019-06-15T05:21:04.598Z,4.80
2019-06-15T05:24:09.758Z,5.67
2019-06-15T05:27:14.978Z,6.27
2019-06-15T05:30:21.623Z,9.77
2019-06-15T05:33:26.863Z,5.47
2019-06-15T05:36:32.046Z,5.37
2019-06-15T05:39:37.296Z,8.90
2019-06-15T05:42:42.478Z,5.83
2019-06-15T05:45:47.723Z,6.57
2019-06-15T05:48:52.951Z,5.07
2019-06-15T05:51:58.147Z,5.67
2019-06-15T05:55:03.389Z,9.07
2019-06-15T05:58:08.525Z,5.97
2019-06-15T06:01:14.458Z,5.57
2019-06-15T06:04:19.617Z,3.17
2019-06-15T06:07:24.892Z,6.03
2019-06-15T06:10:30.159Z,6.60
2019-06-15T06:13:35.359Z,7.10
2019-06-15T06:16:43.467Z,5.70
2019-06-15T06:19:48.632Z,6.73
2019-06-15T06:22:53.801Z,4.40
2019-06-15T06:25:58.956Z,6.87
2019-06-15T06:29:04.332Z,8.13
2019-06-15T06:32:09.531Z,9.87
2019-06-15T06:35:14.745Z,7.30
2019-06-15T06:38:19.897Z,5.50
2019-06-15T06:41:25.055Z,4.67
2019-06-15T06:44:30.310Z,7.30
2019-06-15T06:47:35.495Z,7.53
2019-06-15T06:50:41.401Z,8.03
2019-06-15T06:53:46.603Z,7.33
2019-06-15T06:56:51.821Z,5.23
2019-06-15T06:59:57.095Z,6.37
2019-06-15T07:03:02.364Z,6.63
2019-06-15T07:06:07.534Z,5.33
2019-06-15T07:09:12.774Z,5.53
2019-06-15T07:12:17.931Z,7.73
2019-06-15T07:15:24.132Z,7.83
2019-06-15T07:18:29.411Z,9.87
2019-06-15T07:21:34.551Z,8.87
2019-06-15T07:24:39.783Z,8.23
2019-06-15T07:27:44.986Z,5.00
2019-06-15T07:30:50.216Z,7.17
2019-06-15T07:33:55.381Z,9.00
2019-06-15T07:37:01.656Z,9.27
2019-06-15T07:40:08.404Z,5.77
2019-06-15T07:43:13.557Z,8.07
2019-06-15T07:46:18.703Z,7.97
2019-06-15T07:49:24.051Z,6.20
2019-06-15T07:52:29.315Z,4.13
2019-06-15T07:55:35.459Z,5.70
2019-06-15T07:58:40.600Z,5.73
2019-06-15T08:01:48.123Z,4.43
2019-06-15T08:04:53.424Z,10.33
2019-06-15T08:07:58.698Z,3.87
2019-06-15T08:11:03.996Z,4.67
2019-06-15T08:14:09.377Z,5.17
2019-06-15T08:17:14.574Z,6.07
2019-06-15T08:20:23.141Z,6.63
2019-06-15T08:23:29.353Z,6.13
2019-06-15T08:26:34.575Z,3.73
2019-06-15T08:29:39.736Z,3.97
2019-06-15T08:32:44.905Z,3.50
2019-06-15T08:35:50.073Z,4.67
2019-06-15T08:38:55.268Z,4.57
2019-06-15T08:42:00.414Z,4.67
2019-06-15T08:45:05.973Z,3.90
2019-06-15T08:48:11.512Z,3.97
2019-06-15T08:51:16.922Z,4.40
2019-06-15T08:54:22.201Z,5.93
2019-06-15T08:57:27.388Z,7.33
2019-06-15T09:00:32.611Z,5.70
2019-06-15T09:03:37.890Z,4.73
2019-06-15T09:06:43.162Z,5.90
2019-06-15T09:09:48.372Z,5.80
2019-06-15T09:12:53.568Z,2.83
2019-06-15T09:15:58.790Z,3.67
2019-06-15T09:19:03.987Z,1.70
2019-06-15T09:22:09.177Z,2.77
2019-06-15T09:25:14.337Z,3.57
2019-06-15T09:28:19.599Z,4.00
2019-06-15T09:31:24.757Z,1.90
2019-06-15T09:34:29.917Z,2.90
2019-06-15T09:37:35.117Z,2.83
2019-06-15T09:40:40.310Z,4.23
2019-06-15T09:43:45.480Z,5.00
2019-06-15T09:46:50.718Z,2.70
2019-06-15T09:49:55.892Z,3.30
2019-06-15T09:53:01.095Z,3.50
2019-06-15T09:56:06.353Z,6.00
2019-06-15T09:59:25.351Z,2.77
2019-06-15T10:02:18.489Z,2.63
2019-06-15T10:05:24.763Z,2.90
2019-06-15T10:08:30.072Z,2.20
2019-06-15T10:11:35.263Z,1.63
2019-06-15T10:14:40.427Z,3.87
2019-06-15T10:17:45.680Z,2.20
2019-06-15T10:20:50.875Z,4.00
2019-06-15T10:23:56.113Z,2.10
2019-06-15T10:27:01.393Z,3.73
2019-06-15T10:30:07.504Z,2.63
2019-06-15T10:33:12.697Z,2.93
2019-06-15T10:36:17.932Z,2.70
2019-06-15T10:39:23.250Z,1.60
2019-06-15T10:42:28.476Z,4.47
2019-06-15T10:45:34.017Z,2.27
2019-06-15T10:48:39.149Z,1.57
2019-06-15T10:51:44.458Z,1.90
2019-06-15T10:54:49.671Z,2.40
2019-06-15T10:57:54.867Z,2.70
2019-06-15T11:01:00.002Z,1.20
2019-06-15T11:04:05.213Z,1.77
2019-06-15T11:07:10.352Z,3.33
2019-06-15T11:10:17.560Z,2.33
2019-06-15T11:13:22.718Z,1.70
2019-06-15T11:16:28.053Z,1.40
2019-06-15T11:19:33.247Z,2.93
2019-06-15T11:22:38.363Z,1.80
2019-06-15T11:25:43.585Z,2.07
2019-06-15T11:28:48.764Z,1.33
2019-06-15T11:31:53.896Z,1.43
2019-06-15T11:34:59.094Z,2.50
2019-06-15T11:38:04.304Z,1.37
2019-06-15T11:41:09.479Z,2.17
2019-06-15T11:44:14.646Z,2.77
2019-06-15T11:47:19.805Z,2.70
2019-06-15T11:50:25.040Z,3.57
2019-06-15T11:53:30.217Z,1.33
2019-06-15T11:56:35.414Z,1.40
2019-06-15T11:59:40.659Z,4.93
2019-06-15T12:02:45.757Z,3.17
2019-06-15T12:05:51.049Z,1.63
2019-06-15T12:08:56.162Z,1.77
2019-06-15T12:12:01.355Z,1.63
2019-06-15T12:15:06.786Z,1.63
2019-06-15T12:18:11.990Z,3.80
2019-06-15T12:21:17.145Z,2.20
2019-06-15T12:24:22.343Z,2.17
2019-06-15T12:27:27.625Z,1.37
2019-06-15T12:30:47.114Z,1.27
2019-06-15T12:33:49.253Z,1.10
2019-06-15T12:36:54.498Z,3.33
2019-06-15T12:39:59.655Z,2.10
2019-06-15T12:43:04.750Z,1.53
2019-06-15T12:46:09.998Z,2.30
2019-06-15T12:49:15.162Z,0.70
2019-06-15T12:52:20.367Z,2.67
2019-06-15T12:55:25.566Z,4.27
2019-06-15T12:58:30.815Z,1.37
2019-06-15T13:01:36.016Z,2.93
2019-06-15T13:04:41.211Z,4.40
2019-06-15T13:07:46.428Z,2.43
2019-06-15T13:10:51.578Z,1.23
2019-06-15T13:13:57.727Z,5.00
2019-06-15T13:17:02.902Z,1.70
2019-06-15T13:20:08.799Z,1.50
2019-06-15T13:23:13.983Z,1.20
2019-06-15T13:26:19.239Z,1.63
2019-06-15T13:29:24.374Z,4.43
2019-06-15T13:32:29.703Z,2.40
2019-06-15T13:35:35.898Z,1.47
2019-06-15T13:38:41.094Z,1.33
2019-06-15T13:41:46.252Z,1.47
2019-06-15T13:44:51.451Z,1.80
2019-06-15T13:47:56.693Z,1.00
2019-06-15T13:51:01.876Z,1.27
2019-06-15T13:54:07.163Z,2.17
2019-06-15T13:57:13.389Z,1.57
2019-06-15T14:00:18.597Z,1.50
2019-06-15T14:03:23.791Z,1.40
2019-06-15T14:06:29.057Z,1.87
2019-06-15T14:09:34.260Z,1.10
2019-06-15T14:12:40.562Z,1.87
2019-06-15T14:15:45.686Z,1.93
2019-06-15T14:18:50.843Z,1.60
2019-06-15T14:21:55.993Z,1.70
2019-06-15T14:25:01.208Z,1.93
2019-06-15T14:28:06.544Z,1.10
2019-06-15T14:31:11.699Z,2.43
2019-06-15T14:34:16.868Z,1.37
2019-06-15T14:37:22.061Z,1.27
2019-06-15T14:40:27.308Z,1.30
2019-06-15T14:43:32.535Z,1.17
2019-06-15T14:46:37.731Z,1.30
2019-06-15T14:49:45.701Z,2.37
2019-06-15T14:52:50.894Z,1.73
2019-06-15T14:55:56.603Z,3.30
2019-06-15T14:59:01.854Z,3.27
2019-06-15T15:02:13.872Z,1.63
2019-06-15T15:05:17.662Z,1.70
2019-06-15T15:08:21.723Z,2.00
2019-06-15T15:11:26.880Z,1.37
2019-06-15T15:14:32.114Z,5.30
2019-06-15T15:17:37.421Z,2.93
2019-06-15T15:20:42.586Z,2.40
2019-06-15T15:23:47.816Z,2.43
2019-06-15T15:26:52.986Z,1.50
2019-06-15T15:29:58.215Z,2.77
2019-06-15T15:33:06.556Z,2.60
2019-06-15T15:36:10.368Z,2.73
2019-06-15T15:39:16.675Z,2.57
2019-06-15T15:42:22.000Z,2.13
2019-06-15T15:45:27.260Z,2.53
2019-06-15T15:48:32.461Z,1.53
2019-06-15T15:51:37.601Z,2.17
2019-06-15T15:54:42.856Z,1.60
2019-06-15T15:57:48.926Z,2.20
2019-06-15T16:00:54.192Z,1.70
2019-06-15T16:03:59.345Z,1.37
2019-06-15T16:07:06.620Z,3.30
2019-06-15T16:10:11.716Z,1.57
2019-06-15T16:13:16.965Z,1.30
2019-06-15T16:16:22.148Z,1.37
2019-06-15T16:19:27.448Z,1.97
2019-06-15T16:22:32.738Z,2.70
2019-06-15T16:25:37.886Z,1.57
2019-06-15T16:28:43.086Z,3.03
2019-06-15T16:31:48.255Z,3.00
2019-06-15T16:34:53.488Z,2.97
2019-06-15T16:37:58.708Z,1.50
2019-06-15T16:41:03.934Z,1.83
2019-06-15T16:44:09.153Z,1.43
2019-06-15T16:47:16.589Z,2.10
2019-06-15T16:50:21.261Z,1.90
2019-06-15T16:53:26.558Z,1.97
2019-06-15T16:56:31.771Z,1.87
2019-06-15T16:59:36.982Z,1.87
2019-06-15T17:02:42.228Z,1.70
2019-06-15T17:05:47.523Z,2.47
2019-06-15T17:08:52.734Z,2.20
2019-06-15T17:11:57.892Z,4.57
2019-06-15T17:15:03.184Z,1.40
2019-06-15T17:18:08.829Z,4.10
2019-06-15T17:21:14.051Z,2.33
2019-06-15T17:24:19.268Z,2.43
2019-06-15T17:27:26.232Z,1.20
2019-06-15T17:30:31.726Z,1.97
2019-06-15T17:33:38.423Z,4.40
2019-06-15T17:36:43.928Z,3.30
2019-06-15T17:39:49.155Z,2.07
2019-06-15T17:42:57.564Z,2.07
2019-06-15T17:46:08.220Z,2.67
2019-06-15T17:49:17.906Z,2.50
2019-06-15T17:52:26.421Z,3.43
2019-06-15T17:55:32.008Z,3.77
2019-06-15T17:58:37.289Z,2.43
2019-06-15T18:01:42.529Z,3.23
2019-06-15T18:04:47.696Z,1.60
2019-06-15T18:07:53.999Z,3.10
2019-06-15T18:10:59.168Z,1.53
2019-06-15T18:14:05.990Z,1.80
2019-06-15T18:17:11.241Z,2.50
2019-06-15T18:20:18.147Z,1.60
2019-06-15T18:23:23.299Z,2.47
2019-06-15T18:26:28.433Z,2.97
2019-06-15T18:29:33.606Z,3.63
2019-06-15T18:32:38.816Z,4.07
2019-06-15T18:35:44.027Z,1.60
2019-06-15T18:38:49.225Z,1.93
2019-06-15T18:41:55.972Z,1.50
2019-06-15T18:45:01.501Z,1.80
2019-06-15T18:48:06.695Z,4.40
2019-06-15T18:51:11.958Z,5.73
2019-06-15T18:54:17.215Z,1.90
2019-06-15T18:57:22.408Z,1.50
2019-06-15T19:00:27.602Z,3.37
2019-06-15T19:03:32.814Z,3.03
2019-06-15T19:06:38.041Z,3.33
2019-06-15T19:09:43.303Z,3.83
2019-06-15T19:12:48.545Z,3.90
2019-06-15T19:15:57.026Z,2.97
2019-06-15T19:19:01.710Z,3.17
2019-06-15T19:22:06.857Z,5.10
2019-06-15T19:25:12.802Z,4.10
2019-06-15T19:28:18.021Z,3.17
2019-06-15T19:31:23.394Z,2.50
2019-06-15T19:34:43.263Z,3.73
2019-06-15T19:37:37.069Z,2.93
2019-06-15T19:40:42.461Z,4.07
2019-06-15T19:43:47.680Z,3.67
2019-06-15T19:46:52.949Z,3.50
2019-06-15T19:49:58.209Z,3.37
2019-06-15T19:53:03.401Z,3.87
2019-06-15T19:56:08.738Z,2.47
2019-06-15T19:59:13.812Z,2.50
2019-06-15T20:02:19.162Z,2.20
2019-06-15T20:05:26.026Z,2.20
2019-06-15T20:08:31.327Z,2.37
2019-06-15T20:11:36.872Z,4.00
2019-06-15T20:14:42.094Z,2.57
2019-06-15T20:17:47.267Z,6.07
2019-06-15T20:20:52.691Z,3.23
2019-06-15T20:23:57.934Z,2.67
2019-06-15T20:27:03.122Z,3.70
2019-06-15T20:30:10.081Z,3.00
2019-06-15T20:33:16.594Z,2.57
2019-06-15T20:36:21.960Z,2.63
2019-06-15T20:39:30.274Z,2.80
2019-06-15T20:42:36.678Z,3.73
2019-06-15T20:45:42.102Z,2.50
2019-06-15T20:48:47.225Z,3.60
2019-06-15T20:51:52.513Z,2.83
2019-06-15T20:54:57.775Z,5.27
2019-06-15T20:58:03.069Z,2.83
2019-06-15T21:01:08.443Z,4.53
2019-06-15T21:04:16.031Z,2.40
2019-06-15T21:07:20.796Z,4.23
2019-06-15T21:10:26.497Z,2.93
2019-06-15T21:13:31.979Z,2.40
2019-06-15T21:16:37.192Z,4.73
2019-06-15T21:19:42.410Z,2.80
2019-06-15T21:22:47.585Z,2.93
2019-06-15T21:25:52.752Z,3.97
2019-06-15T21:28:57.938Z,3.93
2019-06-15T21:32:03.115Z,2.67
2019-06-15T21:35:08.630Z,5.00
2019-06-15T21:38:13.718Z,3.67
2019-06-15T21:41:19.058Z,6.10
2019-06-15T21:44:26.403Z,4.63
2019-06-15T21:47:31.203Z,2.40
2019-06-15T21:50:36.537Z,3.47
2019-06-15T21:53:41.857Z,4.13
2019-06-15T21:56:47.135Z,2.73
2019-06-15T21:59:52.280Z,4.17
2019-06-15T22:02:57.503Z,2.47
2019-06-15T22:06:03.555Z,4.13
2019-06-15T22:09:20.262Z,3.47
2019-06-15T22:12:22.688Z,6.57
2019-06-15T22:15:27.914Z,5.80
2019-06-15T22:18:33.106Z,6.27
2019-06-15T22:21:38.839Z,5.03
2019-06-15T22:24:44.031Z,5.47
2019-06-15T22:27:49.216Z,3.93
2019-06-15T22:30:56.991Z,3.63
2019-06-15T22:34:01.296Z,5.20
2019-06-15T22:37:07.038Z,2.97
2019-06-15T22:40:12.514Z,6.47
2019-06-15T22:43:17.662Z,4.10
2019-06-15T22:46:22.891Z,7.73
2019-06-15T22:49:29.050Z,3.07
2019-06-15T22:52:36.441Z,4.70
2019-06-15T22:55:42.022Z,3.30
2019-06-15T22:58:47.182Z,3.70
2019-06-15T23:01:52.522Z,3.20
2019-06-15T23:04:57.704Z,4.07
2019-06-15T23:08:02.857Z,4.33
2019-06-15T23:11:08.003Z,3.50
2019-06-15T23:14:13.211Z,3.93
2019-06-15T23:17:18.343Z,4.10
2019-06-15T23:20:26.829Z,4.93
2019-06-15T23:23:30.479Z,6.00
2019-06-15T23:26:36.851Z,3.70
2019-06-15T23:29:46.090Z,3.90
2019-06-15T23:32:50.425Z,2.90
2019-06-15T23:36:01.011Z,5.33
2019-06-15T23:39:07.775Z,3.80
2019-06-15T23:42:13.146Z,6.57
2019-06-15T23:45:18.966Z,3.77
2019-06-15T23:48:26.492Z,4.00
2019-06-15T23:51:31.411Z,4.63
2019-06-15T23:54:37.050Z,4.23
2019-06-15T23:57:42.248Z,3.27
